AEE34C LGAV-LGSA
Flight info
| Callsign | AEE34C |
|---|---|
| Flight time | 0h 38m |
| Altitude | 21000 |
| Route | KEA L617 MIL Y144 RUSOS |
| Aircraft | A320/M-SDE3FGHIRWY/LB1 |
Departure
| Time | 2026-04-30 19:31 |
|---|---|
| Airport | Athens Eleftherios Venizelos International Airport (LGAV) |
Arrival
| Time | 2026-04-30 20:09 |
|---|---|
| Airport | Chania International Airport (LGSA) |
| Time | Latitude | Longitude | Altitude | Speed | Heading |
|---|---|---|---|---|---|
| 2026-04-30 18:53 | 37.94407 | 23.95713 | 301 ft | 0 kts | 37° |
| 2026-04-30 19:18 | 37.94406 | 23.95712 | 300 ft | 2 kts | 37° |
| 2026-04-30 19:18 | 37.94387 | 23.95691 | 300 ft | 4 kts | 52° |
| 2026-04-30 19:19 | 37.94375 | 23.95663 | 300 ft | 4 kts | 88° |
| 2026-04-30 19:19 | 37.94379 | 23.95641 | 300 ft | 1 kts | 126° |
| 2026-04-30 19:19 | 37.94381 | 23.95637 | 300 ft | 0 kts | 126° |
| 2026-04-30 19:23 | 37.94380 | 23.95639 | 300 ft | 1 kts | 126° |
| 2026-04-30 19:24 | 37.94335 | 23.95718 | 302 ft | 8 kts | 127° |
| 2026-04-30 19:24 | 37.94277 | 23.95732 | 299 ft | 11 kts | 207° |
| 2026-04-30 19:24 | 37.94130 | 23.95606 | 301 ft | 15 kts | 189° |
| 2026-04-30 19:25 | 37.93827 | 23.95450 | 300 ft | 19 kts | 216° |
| 2026-04-30 19:26 | 37.93610 | 23.95244 | 299 ft | 20 kts | 216° |
| 2026-04-30 19:26 | 37.93365 | 23.95013 | 302 ft | 21 kts | 217° |
| 2026-04-30 19:26 | 37.93255 | 23.94909 | 300 ft | 20 kts | 217° |
| 2026-04-30 19:27 | 37.93032 | 23.94694 | 302 ft | 18 kts | 216° |
| 2026-04-30 19:27 | 37.92806 | 23.94480 | 303 ft | 21 kts | 217° |
| 2026-04-30 19:28 | 37.92684 | 23.94365 | 304 ft | 23 kts | 217° |
| 2026-04-30 19:28 | 37.92487 | 23.94178 | 304 ft | 18 kts | 215° |
| 2026-04-30 19:29 | 37.92412 | 23.94209 | 306 ft | 0 kts | 101° |
| 2026-04-30 19:30 | 37.92654 | 23.94611 | 305 ft | 74 kts | 37° |
| 2026-04-30 19:30 | 37.94051 | 23.95940 | 458 ft | 156 kts | 37° |
| 2026-04-30 19:31 | 37.95771 | 23.97617 | 1809 ft | 159 kts | 38° |
| 2026-04-30 19:31 | 37.96654 | 23.98470 | 2365 ft | 163 kts | 37° |
| 2026-04-30 19:31 | 37.98527 | 24.00316 | 3316 ft | 177 kts | 50° |
| 2026-04-30 19:32 | 37.99036 | 24.01772 | 3667 ft | 193 kts | 87° |
| 2026-04-30 19:32 | 37.98717 | 24.03459 | 4005 ft | 207 kts | 126° |
| 2026-04-30 19:32 | 37.97615 | 24.04674 | 4361 ft | 221 kts | 152° |
| 2026-04-30 19:32 | 37.96160 | 24.05597 | 4728 ft | 246 kts | 159° |
| 2026-04-30 19:33 | 37.94516 | 24.06501 | 5186 ft | 268 kts | 160° |
| 2026-04-30 19:33 | 37.92770 | 24.07451 | 5958 ft | 276 kts | 159° |
| 2026-04-30 19:33 | 37.91001 | 24.08445 | 6837 ft | 280 kts | 158° |
| 2026-04-30 19:33 | 37.89215 | 24.09482 | 7671 ft | 285 kts | 158° |
| 2026-04-30 19:34 | 37.87404 | 24.10561 | 8495 ft | 290 kts | 157° |
| 2026-04-30 19:34 | 37.85567 | 24.11675 | 9315 ft | 295 kts | 157° |
| 2026-04-30 19:34 | 37.81755 | 24.14004 | 10446 ft | 322 kts | 157° |
| 2026-04-30 19:35 | 37.79667 | 24.15273 | 10747 ft | 341 kts | 157° |
| 2026-04-30 19:35 | 37.77503 | 24.16592 | 11364 ft | 348 kts | 157° |
| 2026-04-30 19:35 | 37.75308 | 24.17937 | 12061 ft | 353 kts | 157° |
| 2026-04-30 19:35 | 37.73090 | 24.19297 | 12769 ft | 356 kts | 157° |
| 2026-04-30 19:36 | 37.70848 | 24.20669 | 13474 ft | 360 kts | 157° |
| 2026-04-30 19:36 | 37.68580 | 24.22053 | 14124 ft | 364 kts | 158° |
| 2026-04-30 19:36 | 37.63985 | 24.24849 | 15362 ft | 369 kts | 157° |
| 2026-04-30 19:37 | 37.61661 | 24.26260 | 15971 ft | 372 kts | 158° |
| 2026-04-30 19:37 | 37.59314 | 24.27683 | 16586 ft | 376 kts | 158° |
| 2026-04-30 19:37 | 37.56946 | 24.29112 | 17196 ft | 379 kts | 159° |
| 2026-04-30 19:37 | 37.54463 | 24.30208 | 17802 ft | 378 kts | 170° |
| 2026-04-30 19:38 | 37.51890 | 24.30916 | 18380 ft | 380 kts | 172° |
| 2026-04-30 19:38 | 37.49292 | 24.31622 | 18894 ft | 384 kts | 172° |
| 2026-04-30 19:38 | 37.46669 | 24.32340 | 19434 ft | 388 kts | 171° |
| 2026-04-30 19:38 | 37.44023 | 24.33066 | 19959 ft | 391 kts | 172° |
| 2026-04-30 19:39 | 37.41353 | 24.33795 | 20477 ft | 395 kts | 171° |
| 2026-04-30 19:39 | 37.38658 | 24.34530 | 20880 ft | 398 kts | 171° |
| 2026-04-30 19:39 | 37.35946 | 24.35267 | 20983 ft | 397 kts | 171° |
| 2026-04-30 19:39 | 37.33266 | 24.35997 | 20996 ft | 393 kts | 171° |
| 2026-04-30 19:40 | 37.30599 | 24.36724 | 20997 ft | 392 kts | 172° |
| 2026-04-30 19:40 | 37.27936 | 24.37449 | 20997 ft | 391 kts | 171° |
| 2026-04-30 19:40 | 37.25275 | 24.38173 | 20997 ft | 391 kts | 172° |
| 2026-04-30 19:40 | 37.22611 | 24.38894 | 20994 ft | 391 kts | 172° |
| 2026-04-30 19:41 | 37.19956 | 24.39613 | 20993 ft | 391 kts | 171° |
| 2026-04-30 19:41 | 37.17299 | 24.40339 | 20991 ft | 390 kts | 171° |
| 2026-04-30 19:41 | 37.14648 | 24.41068 | 20995 ft | 391 kts | 171° |
| 2026-04-30 19:41 | 37.11990 | 24.41801 | 20996 ft | 391 kts | 171° |
| 2026-04-30 19:42 | 37.09336 | 24.42535 | 20996 ft | 391 kts | 171° |
| 2026-04-30 19:42 | 37.06679 | 24.43267 | 21000 ft | 391 kts | 171° |
| 2026-04-30 19:42 | 37.04025 | 24.43996 | 21005 ft | 391 kts | 171° |
| 2026-04-30 19:42 | 37.01365 | 24.44722 | 21004 ft | 391 kts | 171° |
| 2026-04-30 19:43 | 36.98704 | 24.45442 | 21012 ft | 391 kts | 171° |
| 2026-04-30 19:43 | 36.96046 | 24.46159 | 21012 ft | 391 kts | 171° |
| 2026-04-30 19:43 | 36.93384 | 24.46880 | 21003 ft | 391 kts | 171° |
| 2026-04-30 19:44 | 36.88066 | 24.48323 | 21002 ft | 391 kts | 171° |
| 2026-04-30 19:44 | 36.85403 | 24.49049 | 21005 ft | 391 kts | 171° |
| 2026-04-30 19:44 | 36.82742 | 24.49772 | 21016 ft | 391 kts | 171° |
| 2026-04-30 19:44 | 36.80083 | 24.50494 | 21015 ft | 391 kts | 171° |
| 2026-04-30 19:45 | 36.77421 | 24.51205 | 21012 ft | 391 kts | 173° |
| 2026-04-30 19:45 | 36.74733 | 24.51504 | 21015 ft | 386 kts | 184° |
| 2026-04-30 19:45 | 36.72113 | 24.51187 | 21007 ft | 382 kts | 194° |
| 2026-04-30 19:45 | 36.70368 | 24.50695 | 21009 ft | 381 kts | 197° |
| 2026-04-30 19:46 | 36.67789 | 24.49945 | 21017 ft | 381 kts | 197° |
| 2026-04-30 19:46 | 36.64369 | 24.48961 | 21015 ft | 381 kts | 196° |
| 2026-04-30 19:46 | 36.61786 | 24.48225 | 21008 ft | 381 kts | 196° |
| 2026-04-30 19:46 | 36.59205 | 24.47493 | 21016 ft | 381 kts | 196° |
| 2026-04-30 19:47 | 36.56621 | 24.46761 | 21006 ft | 381 kts | 196° |
| 2026-04-30 19:47 | 36.54876 | 24.46267 | 21012 ft | 381 kts | 196° |
| 2026-04-30 19:47 | 36.52289 | 24.45534 | 21008 ft | 381 kts | 196° |
| 2026-04-30 19:47 | 36.49704 | 24.44801 | 21003 ft | 382 kts | 196° |
| 2026-04-30 19:48 | 36.47116 | 24.44069 | 21009 ft | 382 kts | 196° |
| 2026-04-30 19:48 | 36.44525 | 24.43337 | 21011 ft | 382 kts | 196° |
| 2026-04-30 19:48 | 36.41938 | 24.42605 | 21015 ft | 381 kts | 196° |
| 2026-04-30 19:48 | 36.39350 | 24.41872 | 21023 ft | 381 kts | 196° |
| 2026-04-30 19:49 | 36.36746 | 24.41135 | 20968 ft | 383 kts | 196° |
| 2026-04-30 19:49 | 36.31574 | 24.39679 | 20997 ft | 380 kts | 196° |
| 2026-04-30 19:49 | 36.28996 | 24.38952 | 21010 ft | 380 kts | 196° |
| 2026-04-30 19:50 | 36.26453 | 24.38233 | 21007 ft | 380 kts | 197° |
| 2026-04-30 19:50 | 36.23872 | 24.37502 | 21013 ft | 381 kts | 197° |
| 2026-04-30 19:50 | 36.21256 | 24.36761 | 21002 ft | 381 kts | 197° |
| 2026-04-30 19:50 | 36.18708 | 24.36040 | 21006 ft | 381 kts | 197° |
| 2026-04-30 19:51 | 36.16126 | 24.35310 | 21001 ft | 381 kts | 197° |
| 2026-04-30 19:51 | 36.13545 | 24.34585 | 21020 ft | 381 kts | 197° |
| 2026-04-30 19:51 | 36.10959 | 24.33859 | 21019 ft | 381 kts | 197° |
| 2026-04-30 19:51 | 36.08374 | 24.33132 | 21012 ft | 381 kts | 197° |
| 2026-04-30 19:52 | 36.05815 | 24.32418 | 20780 ft | 372 kts | 197° |
| 2026-04-30 19:52 | 36.03324 | 24.31727 | 20530 ft | 362 kts | 197° |
| 2026-04-30 19:52 | 36.00883 | 24.31049 | 20284 ft | 357 kts | 197° |
| 2026-04-30 19:52 | 35.98470 | 24.30373 | 20039 ft | 355 kts | 197° |
| 2026-04-30 19:53 | 35.96065 | 24.29696 | 19796 ft | 354 kts | 197° |
| 2026-04-30 19:53 | 35.93670 | 24.29020 | 19554 ft | 352 kts | 197° |
| 2026-04-30 19:53 | 35.91282 | 24.28348 | 19315 ft | 351 kts | 197° |
| 2026-04-30 19:53 | 35.88907 | 24.27680 | 19078 ft | 350 kts | 197° |
| 2026-04-30 19:54 | 35.86536 | 24.27013 | 18842 ft | 349 kts | 197° |
| 2026-04-30 19:54 | 35.84175 | 24.26352 | 18607 ft | 348 kts | 197° |
| 2026-04-30 19:54 | 35.81822 | 24.25697 | 18380 ft | 346 kts | 197° |
| 2026-04-30 19:54 | 35.79441 | 24.25241 | 18130 ft | 350 kts | 182° |
| 2026-04-30 19:55 | 35.77047 | 24.25895 | 17862 ft | 357 kts | 162° |
| 2026-04-30 19:55 | 35.74768 | 24.27129 | 17600 ft | 358 kts | 158° |
| 2026-04-30 19:55 | 35.72514 | 24.28424 | 17339 ft | 357 kts | 159° |
| 2026-04-30 19:55 | 35.70245 | 24.29644 | 17077 ft | 356 kts | 156° |
| 2026-04-30 19:56 | 35.68180 | 24.31339 | 16354 ft | 362 kts | 138° |
| 2026-04-30 19:56 | 35.66530 | 24.33688 | 15392 ft | 364 kts | 128° |
| 2026-04-30 19:56 | 35.64963 | 24.36138 | 14458 ft | 364 kts | 133° |
| 2026-04-30 19:56 | 35.63109 | 24.38239 | 13505 ft | 362 kts | 146° |
| 2026-04-30 19:57 | 35.60949 | 24.39777 | 12543 ft | 357 kts | 158° |
| 2026-04-30 19:57 | 35.58645 | 24.40815 | 11830 ft | 347 kts | 167° |
| 2026-04-30 19:57 | 35.56377 | 24.41475 | 11617 ft | 324 kts | 172° |
| 2026-04-30 19:57 | 35.54185 | 24.41875 | 11100 ft | 314 kts | 178° |
| 2026-04-30 19:58 | 35.51997 | 24.42000 | 10297 ft | 316 kts | 185° |
| 2026-04-30 19:58 | 35.49802 | 24.41818 | 9459 ft | 316 kts | 191° |
| 2026-04-30 19:58 | 35.47685 | 24.41206 | 8617 ft | 309 kts | 210° |
| 2026-04-30 19:58 | 35.46090 | 24.39561 | 7820 ft | 297 kts | 240° |
| 2026-04-30 19:59 | 35.45468 | 24.37220 | 7043 ft | 288 kts | 271° |
| 2026-04-30 19:59 | 35.45830 | 24.34839 | 6313 ft | 284 kts | 290° |
| 2026-04-30 19:59 | 35.48079 | 24.31412 | 5928 ft | 248 kts | 336° |
| 2026-04-30 20:00 | 35.49683 | 24.30844 | 5749 ft | 234 kts | 344° |
| 2026-04-30 20:00 | 35.51260 | 24.30446 | 5360 ft | 229 kts | 351° |
| 2026-04-30 20:00 | 35.52832 | 24.30750 | 4994 ft | 236 kts | 23° |
| 2026-04-30 20:00 | 35.54191 | 24.31922 | 4630 ft | 243 kts | 40° |
| 2026-04-30 20:01 | 35.56317 | 24.35144 | 4065 ft | 243 kts | 68° |
| 2026-04-30 20:01 | 35.56599 | 24.37139 | 4001 ft | 235 kts | 93° |
| 2026-04-30 20:01 | 35.56233 | 24.39077 | 4005 ft | 234 kts | 117° |
| 2026-04-30 20:02 | 35.53963 | 24.41681 | 4004 ft | 225 kts | 163° |
| 2026-04-30 20:02 | 35.52447 | 24.41998 | 4005 ft | 217 kts | 184° |
| 2026-04-30 20:03 | 35.49625 | 24.41770 | 4024 ft | 187 kts | 191° |
| 2026-04-30 20:03 | 35.48405 | 24.41524 | 4001 ft | 169 kts | 196° |
| 2026-04-30 20:03 | 35.47380 | 24.41020 | 3994 ft | 152 kts | 217° |
| 2026-04-30 20:03 | 35.46602 | 24.40179 | 4003 ft | 148 kts | 235° |
| 2026-04-30 20:04 | 35.46089 | 24.39105 | 3971 ft | 147 kts | 251° |
| 2026-04-30 20:04 | 35.45872 | 24.37913 | 3817 ft | 141 kts | 268° |
| 2026-04-30 20:04 | 35.45959 | 24.36740 | 3673 ft | 138 kts | 283° |
| 2026-04-30 20:05 | 35.46654 | 24.34556 | 3336 ft | 137 kts | 290° |
| 2026-04-30 20:05 | 35.47012 | 24.33476 | 3172 ft | 136 kts | 290° |
| 2026-04-30 20:05 | 35.47724 | 24.31329 | 2851 ft | 136 kts | 290° |
| 2026-04-30 20:06 | 35.48080 | 24.30258 | 2707 ft | 135 kts | 290° |
| 2026-04-30 20:06 | 35.48435 | 24.29191 | 2535 ft | 135 kts | 290° |
| 2026-04-30 20:06 | 35.48785 | 24.28138 | 2379 ft | 135 kts | 290° |
| 2026-04-30 20:06 | 35.49138 | 24.27075 | 2222 ft | 135 kts | 290° |
| 2026-04-30 20:07 | 35.49531 | 24.26029 | 2063 ft | 135 kts | 294° |
| 2026-04-30 20:07 | 35.49938 | 24.24989 | 1881 ft | 135 kts | 291° |
| 2026-04-30 20:07 | 35.50533 | 24.22781 | 1462 ft | 132 kts | 288° |
| 2026-04-30 20:08 | 35.50933 | 24.21742 | 1389 ft | 137 kts | 299° |
| 2026-04-30 20:08 | 35.51344 | 24.20691 | 1148 ft | 137 kts | 289° |
| 2026-04-30 20:08 | 35.51653 | 24.19597 | 989 ft | 138 kts | 292° |
| 2026-04-30 20:08 | 35.52026 | 24.18503 | 808 ft | 140 kts | 289° |
| 2026-04-30 20:09 | 35.52389 | 24.17380 | 630 ft | 140 kts | 293° |
| 2026-04-30 20:09 | 35.52742 | 24.16289 | 503 ft | 134 kts | 291° |
| 2026-04-30 20:09 | 35.53218 | 24.14829 | 493 ft | 43 kts | 292° |
| 2026-04-30 20:10 | 35.53336 | 24.14460 | 494 ft | 22 kts | 290° |
| 2026-04-30 20:10 | 35.53394 | 24.14276 | 492 ft | 24 kts | 291° |
| 2026-04-30 20:10 | 35.53457 | 24.14082 | 493 ft | 25 kts | 292° |
| 2026-04-30 20:11 | 35.53591 | 24.13684 | 500 ft | 21 kts | 293° |
| 2026-04-30 20:11 | 35.53637 | 24.13552 | 499 ft | 16 kts | 293° |
| 2026-04-30 20:11 | 35.53708 | 24.13458 | 489 ft | 16 kts | 9° |
| 2026-04-30 20:12 | 35.53793 | 24.13632 | 489 ft | 16 kts | 113° |
| 2026-04-30 20:12 | 35.53753 | 24.13767 | 493 ft | 15 kts | 88° |
| 2026-04-30 20:12 | 35.53832 | 24.13832 | 489 ft | 13 kts | 40° |
| 2026-04-30 20:13 | 35.53819 | 24.13935 | 490 ft | 8 kts | 111° |
| 2026-04-30 20:13 | 35.53835 | 24.13992 | 494 ft | 9 kts | 23° |
| 2026-04-30 20:13 | 35.53878 | 24.14013 | 498 ft | 3 kts | 20° |
| 2026-04-30 20:13 | 35.53885 | 24.14016 | 496 ft | 0 kts | 21° |